La Constitución, Mexico

3:09 AM CST on February 12, 2016 (GMT -0600)
colonia libertad | | Change Station
CLOSE
Current Station
Personal Weather Station
Location: Santa Cruz Atizapán, ESTADO DE MéXICO
Elevation: 8465 ft
Nearby Weather Stations

Elev 8465 ft 19.19 °N, 99.50 °W | Updated 22 seconds ago

Clear
Clear
38.3 °F
Feels Like 38 °F
N
0.0
Wind Variable Wind from East
Gusts 0.0 mph

Today
High -- | Low -- °F
--% Chance of Precip.
Yesterday
High -- | Low -- °F
Precip. -- in
Pressure 30.41 in
Visibility 5.0 miles
Clouds Clear
Windchill 38 °F
Dew Point 1 °F
Humidity 20%
Rainfall 0.00 in
Snow Depth Not available.
7:08 AM 6:36 PM
Waxing Crescent, 19% visible
SPECI MMMX 120905Z 07006KT 5SM SKC 08/00 A3041 NOSIG RMK HZY FU
Pressure 30.41 in
Visibility 5.0 miles
Clouds Clear
Windchill 38 °F
Dew Point 1 °F
Humidity 20%
Rainfall 0.00 in
Snow Depth Not available.
7:08 AM 6:36 PM
Waxing Crescent, 19% visible
SPECI MMMX 120905Z 07006KT 5SM SKC 08/00 A3041 NOSIG RMK HZY FU

10-Day Weather Forecast

No radar image for this location.
×

Almanac

Astronomy

Feb. 12, 2016 Rise Set
Actual Time
Civil Twilight
Nautical Twilight
Astronomical Twilight
Moon
Length of Visible Light
Length of Day
Tomorrow will be .
, % of the Moon is Illuminated

Today's Extremes

Country Highs Country Lows

Community

WunderPhotos

Upload Photos

1,892,286 photos uploaded!

WunderBlog® & News

Nearby

Air Quality

  Air Quality AQ Index Pollutant
Not available.

Snow Depth

Station Depth Elevation

Earthquake Activity

City Distance Mag. Time & Date
Minimum magnitude displayed is 2.5.

Coastal Water Temperatures

Place Temperature

Stations

Nearby Weather Stations

Station Location Temp. Windchill Dew Point Humidity Wind Precip. Elev Updated Type